Time;durP1;ratioP1;P1;durP2;ratioP2;P2;SDS_P1;SDS_P2;PMS_P1;PMS_P2;Temp;Humidity;BMP_temperature;BMP_pressure;BME280_temperature;BME280_humidity;BME280_pressure;Samples;Min_cycle;Max_cycle;Signal;HPM_P1;HPM_P2
2021/07/15 00:01:50;;;;;;;7.40;5.22;;;;;;;22.32;63.81;101095.81;5013626;28;20076;-71
2021/07/15 00:04:18;;;;;;;7.05;5.68;;;;;;;22.28;63.99;101085.44;5014665;28;20044;-70
2021/07/15 00:06:44;;;;;;;6.53;5.10;;;;;;;22.31;64.23;101088.84;5014843;28;20042;-71
2021/07/15 00:09:12;;;;;;;7.45;5.38;;;;;;;22.31;63.89;101097.63;5014306;28;20109;-72
2021/07/15 00:11:39;;;;;;;7.75;5.32;;;;;;;22.29;64.18;101094.25;5014630;28;20049;-71
2021/07/15 00:14:05;;;;;;;7.57;4.93;;;;;;;22.28;64.19;101082.78;5014778;28;20117;-71
2021/07/15 00:16:33;;;;;;;7.15;5.13;;;;;;;22.28;64.07;101096.06;5014034;28;20430;-72
2021/07/15 00:18:59;;;;;;;6.55;5.05;;;;;;;22.30;64.16;101090.63;5014809;28;20085;-71
2021/07/15 00:21:26;;;;;;;6.95;5.47;;;;;;;22.28;63.98;101090.75;5014548;28;20126;-72
2021/07/15 00:23:53;;;;;;;7.13;5.50;;;;;;;22.29;64.06;101091.59;5014154;28;20114;-71
2021/07/15 00:26:22;;;;;;;6.63;5.28;;;;;;;22.27;64.35;101091.75;5014331;28;20108;-71
2021/07/15 00:28:47;;;;;;;7.00;5.38;;;;;;;22.27;64.23;101085.59;5014007;28;20054;-71
2021/07/15 00:31:13;;;;;;;6.63;5.18;;;;;;;22.27;64.26;101088.25;5014743;28;20135;-71
2021/07/15 00:33:38;;;;;;;7.03;5.18;;;;;;;22.26;64.02;101091.91;5014286;28;20026;-72
2021/07/15 00:36:04;;;;;;;7.28;5.05;;;;;;;22.27;64.07;101106.81;5013837;28;20421;-71
2021/07/15 00:38:29;;;;;;;5.93;4.70;;;;;;;22.27;64.13;101098.88;5014319;28;20088;-71
2021/07/15 00:40:55;;;;;;;6.40;4.90;;;;;;;22.26;64.16;101089.25;5015313;28;20022;-71
2021/07/15 00:43:24;;;;;;;6.38;5.03;;;;;;;22.25;64.14;101084.91;5014181;28;20076;-72
2021/07/15 00:45:50;;;;;;;6.68;4.88;;;;;;;22.26;64.10;101086.59;5014548;28;20054;-72
2021/07/15 00:48:25;;;;;;;6.30;4.85;;;;;;;22.26;63.93;101098.03;5014163;28;20468;-71
2021/07/15 00:50:51;;;;;;;7.47;4.60;;;;;;;22.26;63.86;101094.56;5013834;28;20032;-73
2021/07/15 00:53:17;;;;;;;6.72;4.70;;;;;;;22.24;64.07;101084.09;5014059;28;20426;-71
2021/07/15 00:55:44;;;;;;;6.75;5.53;;;;;;;22.26;63.72;101086.59;5014388;28;20057;-71
2021/07/15 00:58:13;;;;;;;6.05;4.72;;;;;;;22.25;64.31;101087.56;5013915;28;20026;-72
2021/07/15 01:00:41;;;;;;;6.90;5.22;;;;;;;22.24;64.25;101081.44;5014124;28;20438;-71
2021/07/15 01:03:10;;;;;;;5.80;4.55;;;;;;;22.24;64.20;101092.03;5013678;28;20104;-71
2021/07/15 01:05:39;;;;;;;6.80;4.78;;;;;;;22.23;64.10;101087.72;5013240;28;20171;-72
2021/07/15 01:08:05;;;;;;;6.30;4.82;;;;;;;22.24;63.87;101083.25;5013450;28;20132;-71
2021/07/15 01:10:36;;;;;;;6.40;4.90;;;;;;;22.23;64.16;101076.25;5013914;28;20044;-71
2021/07/15 01:13:12;;;;;;;7.55;4.78;;;;;;;22.23;64.00;101071.78;5013308;28;20091;-72
2021/07/15 01:16:08;;;;;;;6.10;4.43;;;;;;;22.23;64.03;101076.25;5014271;28;20058;-71
2021/07/15 01:18:48;;;;;;;7.00;4.45;;;;;;;22.16;63.91;101057.44;5013560;28;20033;-71
2021/07/15 01:21:50;;;;;;;6.90;4.80;;;;;;;22.21;63.97;101068.44;5014033;28;20081;-72
2021/07/15 01:24:33;;;;;;;9.50;4.63;;;;;;;22.20;64.00;101072.06;5014588;28;20492;-71
2021/07/15 01:27:24;;;;;;;5.47;4.10;;;;;;;22.22;64.11;101080.75;5013812;28;20022;-71
2021/07/15 01:30:05;;;;;;;6.00;4.80;;;;;;;22.22;64.29;101071.94;5014207;28;20033;-72
2021/07/15 01:32:38;;;;;;;6.68;4.43;;;;;;;22.20;64.07;101066.75;5013344;28;20022;-72
2021/07/15 01:35:06;;;;;;;5.90;4.28;;;;;;;22.20;63.88;101072.06;5013797;28;20040;-71
2021/07/15 01:37:35;;;;;;;6.40;4.65;;;;;;;22.20;64.22;101077.38;5014103;28;20544;-70
2021/07/15 01:40:03;;;;;;;6.20;4.38;;;;;;;22.19;63.99;101086.34;5013633;28;20038;-71
2021/07/15 01:42:31;;;;;;;5.97;4.30;;;;;;;22.18;64.35;101081.19;5013555;28;20030;-72
2021/07/15 01:44:57;;;;;;;6.18;4.55;;;;;;;22.18;64.00;101087.31;5013101;28;20064;-71
2021/07/15 01:47:33;;;;;;;6.55;4.60;;;;;;;22.20;64.04;101092.47;5012482;28;20084;-72
2021/07/15 01:50:00;;;;;;;5.72;4.35;;;;;;;22.19;64.05;101088.16;5013766;28;20033;-71
2021/07/15 01:52:29;;;;;;;5.78;4.30;;;;;;;22.20;64.00;101092.47;5013085;28;20382;-72
2021/07/15 01:54:54;;;;;;;5.72;4.60;;;;;;;22.20;64.29;101088.00;5012817;28;20414;-71
2021/07/15 01:57:24;;;;;;;5.22;3.95;;;;;;;22.20;63.99;101076.56;5013096;28;20046;-71
2021/07/15 01:59:52;;;;;;;5.85;4.53;;;;;;;22.18;64.04;101070.56;5013323;28;20037;-71
2021/07/15 02:02:18;;;;;;;5.32;3.90;;;;;;;22.19;64.14;101067.75;5012231;28;20108;-72
2021/07/15 02:04:44;;;;;;;5.97;4.10;;;;;;;22.18;64.05;101060.78;5013391;28;20030;-72
2021/07/15 02:07:11;;;;;;;6.03;4.28;;;;;;;22.18;64.14;101071.38;5012951;28;20079;-71
2021/07/15 02:09:37;;;;;;;6.70;4.32;;;;;;;22.18;63.96;101070.56;5011115;28;20140;-72
2021/07/15 02:12:03;;;;;;;5.65;3.92;;;;;;;22.17;64.16;101066.22;5011801;28;20038;-72
2021/07/15 02:14:29;;;;;;;6.03;4.43;;;;;;;22.18;63.94;101054.63;5011504;28;20026;-71
2021/07/15 02:16:58;;;;;;;5.88;4.57;;;;;;;22.18;64.08;101059.94;5012849;28;20117;-71
2021/07/15 02:19:24;;;;;;;5.47;4.00;;;;;;;22.16;64.14;101057.44;5012270;28;20065;-72
2021/07/15 02:21:52;;;;;;;5.82;4.00;;;;;;;22.17;64.08;101059.09;5011738;28;20033;-72
2021/07/15 02:24:23;;;;;;;5.90;4.30;;;;;;;22.18;64.12;101062.59;5012235;28;20080;-71
2021/07/15 02:26:51;;;;;;;5.20;3.80;;;;;;;22.15;63.92;101062.88;5016494;28;20121;-71
2021/07/15 02:29:18;;;;;;;5.10;3.80;;;;;;;22.16;64.25;101068.06;5015656;28;20113;-72
2021/07/15 02:31:47;;;;;;;6.13;4.20;;;;;;;22.18;64.24;101081.19;5016767;28;20083;-73
2021/07/15 02:34:21;;;;;;;6.45;4.30;;;;;;;22.17;63.89;101090.94;5016448;28;20470;-72
2021/07/15 02:36:46;;;;;;;;;;;;;;;22.16;64.10;101094.59;5016288;28;20033;-72
2021/07/15 02:39:12;;;;;;;6.00;3.78;;;;;;;22.17;64.05;101090.13;5016778;28;19913;-71
2021/07/15 02:41:38;;;;;;;6.25;4.43;;;;;;;22.15;63.92;101087.59;5016207;28;20022;-71
2021/07/15 02:44:03;;;;;;;5.47;3.80;;;;;;;22.16;64.27;101094.59;5015664;28;20149;-71
2021/07/15 02:46:29;;;;;;;6.00;3.88;;;;;;;22.16;63.95;101099.91;5015915;28;20119;-71
2021/07/15 02:48:55;;;;;;;5.53;4.25;;;;;;;22.15;64.13;101100.06;5016252;28;20030;-71
2021/07/15 02:51:24;;;;;;;5.70;4.00;;;;;;;22.16;64.17;101099.03;5015172;28;20030;-72
2021/07/15 02:53:50;;;;;;;4.88;3.63;;;;;;;22.15;64.32;101100.06;5016492;28;20114;-72
2021/07/15 02:56:34;;;;;;;5.10;3.80;;;;;;;22.15;64.24;101089.44;5015632;28;20497;-71
2021/07/15 02:59:27;;;;;;;5.65;3.83;;;;;;;22.15;64.11;101100.88;5016165;28;20493;-71
2021/07/15 03:02:10;;;;;;;5.00;3.92;;;;;;;22.15;63.95;101094.75;5016364;28;20033;-72
2021/07/15 03:04:47;;;;;;;5.78;3.90;;;;;;;22.15;64.40;101097.41;5014945;28;20490;-71
2021/07/15 03:07:20;;;;;;;5.10;3.85;;;;;;;22.14;64.09;101093.88;5016947;28;20107;-72
2021/07/15 03:09:49;;;;;;;5.30;3.85;;;;;;;22.15;64.23;101100.06;5017584;28;20074;-71
2021/07/15 03:12:18;;;;;;;5.07;3.92;;;;;;;22.12;64.10;101101.16;5016311;28;20022;-71
2021/07/15 03:14:45;;;;;;;5.80;3.85;;;;;;;22.14;64.17;101106.31;5017384;28;20049;-71
2021/07/15 03:17:19;;;;;;;5.60;3.95;;;;;;;22.14;64.10;101103.69;5017466;28;20041;-71
2021/07/15 03:19:51;;;;;;;5.70;4.00;;;;;;;22.12;63.90;101097.69;5016108;28;20030;-70
2021/07/15 03:22:17;;;;;;;5.13;3.58;;;;;;;22.12;64.13;101105.66;5015490;28;20057;-72
2021/07/15 03:24:51;;;;;;;4.95;3.75;;;;;;;22.13;64.26;101097.53;5015024;28;20041;-71
2021/07/15 03:27:18;;;;;;;6.28;3.58;;;;;;;22.10;64.10;101092.53;5015685;28;20030;-71
2021/07/15 03:29:46;;;;;;;5.50;3.92;;;;;;;22.11;63.87;101102.13;5015683;28;20136;-71
2021/07/15 03:32:13;;;;;;;5.10;3.60;;;;;;;22.12;64.05;101108.31;5014774;28;20030;-72
2021/07/15 03:34:39;;;;;;;5.40;4.07;;;;;;;22.09;63.89;101106.75;5015208;28;20037;-71
2021/07/15 03:37:05;;;;;;;5.25;3.42;;;;;;;22.13;64.13;101117.91;5015354;28;20034;-72
2021/07/15 03:39:31;;;;;;;5.57;3.78;;;;;;;22.13;64.26;101115.25;5014382;28;20109;-72
2021/07/15 03:41:59;;;;;;;4.47;3.35;;;;;;;22.10;64.23;101119.06;5015409;28;20101;-70
2021/07/15 03:44:26;;;;;;;5.68;3.70;;;;;;;22.10;64.12;101117.22;5015012;28;20033;-71
2021/07/15 03:46:53;;;;;;;4.50;3.40;;;;;;;22.12;64.17;101113.59;5014332;28;20041;-71
2021/07/15 03:49:21;;;;;;;5.47;3.90;;;;;;;22.12;64.18;101113.59;5015260;28;20026;-72
2021/07/15 03:51:47;;;;;;;5.45;3.70;;;;;;;22.10;63.91;101117.22;5015318;28;20028;-72
2021/07/15 03:54:13;;;;;;;5.68;4.07;;;;;;;22.11;64.14;101120.72;5014735;28;20014;-72
2021/07/15 03:56:49;;;;;;;5.72;3.85;;;;;;;22.10;63.94;101127.84;5015003;28;20022;-72
2021/07/15 03:59:16;;;;;;;6.05;3.78;;;;;;;22.10;64.26;101130.50;5014967;28;20027;-71
2021/07/15 04:01:43;;;;;;;5.60;3.85;;;;;;;22.10;64.43;101129.69;5014624;28;20029;-71
2021/07/15 04:04:11;;;;;;;5.97;3.72;;;;;;;22.10;64.09;101119.06;5014792;28;20053;-72
2021/07/15 04:06:38;;;;;;;7.80;3.97;;;;;;;22.10;63.94;101124.38;5014802;28;20041;-72
2021/07/15 04:09:10;;;;;;;5.18;3.67;;;;;;;22.10;64.43;101129.69;5014456;28;20107;-71
2021/07/15 04:11:41;;;;;;;6.32;4.00;;;;;;;22.08;64.24;101127.16;5014859;28;20028;-71
2021/07/15 04:14:14;;;;;;;5.53;3.85;;;;;;;22.10;63.96;101129.69;5014198;28;20040;-70
2021/07/15 04:17:03;;;;;;;5.65;4.03;;;;;;;22.10;64.17;101134.97;5014574;28;20050;-72
2021/07/15 04:19:30;;;;;;;4.78;3.47;;;;;;;22.09;64.07;101126.16;5014543;28;20030;-72
2021/07/15 04:21:56;;;;;;;5.38;3.80;;;;;;;22.07;64.24;101146.72;5014042;28;20022;-72
2021/07/15 04:24:24;;;;;;;5.20;3.42;;;;;;;22.10;63.88;101145.59;5014286;28;20474;-72
2021/07/15 04:26:50;;;;;;;4.60;3.17;;;;;;;22.07;64.10;101149.38;5014569;28;20029;-72
2021/07/15 04:29:18;;;;;;;6.07;3.65;;;;;;;22.07;64.24;101148.53;5028428;28;20026;-72
2021/07/15 04:32:02;;;;;;;5.70;3.63;;;;;;;22.08;64.00;101145.75;5014501;28;20025;-71
2021/07/15 04:34:32;;;;;;;;;;;;;;;22.07;64.32;101146.72;5014528;28;20034;-71
2021/07/15 04:36:58;;;;;;;5.80;3.20;;;;;;;22.07;63.87;101138.75;5013837;28;19949;-71
2021/07/15 04:39:26;;;;;;;4.72;3.40;;;;;;;22.06;64.20;101137.09;5013847;28;20477;-72
2021/07/15 04:41:53;;;;;;;4.85;3.20;;;;;;;22.07;64.12;101143.22;5014089;28;20386;-71
2021/07/15 04:44:19;;;;;;;5.55;3.30;;;;;;;22.06;64.04;101146.84;5013341;28;20025;-71
2021/07/15 04:46:46;;;;;;;4.75;3.42;;;;;;;22.06;64.18;101157.47;5013601;28;20057;-71
2021/07/15 04:49:12;;;;;;;5.10;3.30;;;;;;;22.06;64.15;101168.94;5013046;28;20088;-71
2021/07/15 04:51:41;;;;;;;4.30;3.05;;;;;;;22.06;63.83;101168.09;5013793;28;20034;-71
2021/07/15 04:54:07;;;;;;;4.90;3.20;;;;;;;22.03;64.27;101168.38;5013828;28;20029;-72
2021/07/15 04:56:33;;;;;;;5.50;3.70;;;;;;;22.06;64.37;101170.75;5013386;28;20092;-72
2021/07/15 04:59:01;;;;;;;5.00;3.40;;;;;;;22.06;64.04;101168.09;5013925;28;20461;-71
2021/07/15 05:01:26;;;;;;;5.28;3.20;;;;;;;22.05;64.24;101172.56;5013538;28;20030;-69
2021/07/15 05:03:52;;;;;;;4.78;3.00;;;;;;;22.05;64.27;101169.91;5013334;28;20022;-71
2021/07/15 05:06:19;;;;;;;5.22;3.53;;;;;;;22.05;64.12;101169.91;5013315;28;20025;-72
2021/07/15 05:08:44;;;;;;;4.47;3.15;;;;;;;22.05;64.17;101166.44;5013737;28;20053;-72
2021/07/15 05:11:12;;;;;;;5.20;3.45;;;;;;;22.05;64.34;101175.22;5013040;28;20054;-72
2021/07/15 05:13:40;;;;;;;4.93;3.42;;;;;;;22.05;64.33;101180.53;5013492;28;20029;-72
2021/07/15 05:16:09;;;;;;;4.60;2.83;;;;;;;22.04;64.11;101172.72;5013633;28;20026;-72
2021/07/15 05:18:35;;;;;;;5.20;3.15;;;;;;;22.04;64.02;101172.72;5012588;28;20037;-71
2021/07/15 05:21:01;;;;;;;4.40;2.80;;;;;;;22.04;64.19;101170.88;5013422;28;20026;-71
2021/07/15 05:23:27;;;;;;;5.10;3.15;;;;;;;22.04;64.20;101167.41;5013050;28;20022;-72
2021/07/15 05:25:54;;;;;;;4.78;3.05;;;;;;;22.04;63.95;101159.44;5012711;28;20040;-71
2021/07/15 05:28:19;;;;;;;4.65;2.72;;;;;;;22.04;64.13;101159.44;5013281;28;20026;-71
2021/07/15 05:30:45;;;;;;;4.65;2.80;;;;;;;22.04;64.11;101157.63;5013628;28;20096;-71
2021/07/15 05:33:17;;;;;;;5.65;3.20;;;;;;;21.98;63.91;101149.41;5012586;28;20113;-73
2021/07/15 05:35:43;;;;;;;4.30;2.85;;;;;;;22.04;64.32;101170.06;5013114;28;20053;-71
2021/07/15 05:38:09;;;;;;;3.95;2.70;;;;;;;22.04;64.09;101170.06;5013271;28;20092;-72
2021/07/15 05:40:35;;;;;;;5.13;3.00;;;;;;;22.04;64.01;101170.06;5011897;28;20429;-72
2021/07/15 05:43:00;;;;;;;4.80;3.10;;;;;;;22.04;64.13;101172.72;5012803;28;20083;-71
2021/07/15 05:45:26;;;;;;;4.75;3.10;;;;;;;22.03;63.81;101169.22;5011659;28;20053;-71
2021/07/15 05:47:51;;;;;;;4.60;3.20;;;;;;;22.04;64.20;101178.84;5012622;28;20042;-71
2021/07/15 05:50:17;;;;;;;5.60;2.78;;;;;;;22.03;64.07;101179.84;5012615;28;20026;-71
2021/07/15 05:52:42;;;;;;;5.25;2.83;;;;;;;22.03;64.09;101166.56;5012508;28;20386;-72
2021/07/15 05:55:11;;;;;;;4.40;2.70;;;;;;;22.03;64.17;101168.38;5012736;28;20366;-72
2021/07/15 05:57:37;;;;;;;4.65;2.97;;;;;;;22.03;64.11;101171.03;5012616;28;20054;-72
2021/07/15 06:00:07;;;;;;;4.45;2.90;;;;;;;22.01;63.97;101171.16;5011576;28;20057;-73
2021/07/15 06:02:32;;;;;;;4.15;2.72;;;;;;;22.03;64.24;101178.97;5012854;28;20385;-71
2021/07/15 06:04:57;;;;;;;4.33;3.00;;;;;;;22.02;63.86;101178.16;5012451;28;20026;-70
2021/07/15 06:07:23;;;;;;;4.20;2.75;;;;;;;22.03;64.12;101181.63;5011661;28;20761;-72
2021/07/15 06:09:48;;;;;;;4.63;2.70;;;;;;;22.02;64.39;101180.81;5013068;28;20026;-71
2021/07/15 06:12:13;;;;;;;4.43;2.60;;;;;;;22.02;63.98;101194.09;5012567;28;20626;-72
2021/07/15 06:14:38;;;;;;;4.00;2.63;;;;;;;22.01;64.16;101186.25;5011592;28;20057;-72
2021/07/15 06:17:04;;;;;;;5.23;2.67;;;;;;;22.01;64.31;101199.53;5012754;28;20025;-72
2021/07/15 06:19:29;;;;;;;5.85;2.90;;;;;;;22.01;64.03;101210.16;5012664;28;20374;-71
2021/07/15 06:21:55;;;;;;;4.45;2.78;;;;;;;22.02;64.09;101225.09;5012474;28;20021;-72
2021/07/15 06:24:20;;;;;;;4.22;2.85;;;;;;;22.01;63.95;101237.50;5013025;28;20056;-71
2021/07/15 06:26:47;;;;;;;4.65;2.90;;;;;;;22.00;64.41;101238.50;5013046;28;20503;-71
2021/07/15 06:29:16;;;;;;;4.13;2.75;;;;;;;22.01;64.17;101239.34;5012357;28;20378;-71
2021/07/15 06:31:41;;;;;;;4.28;2.83;;;;;;;22.01;64.09;101226.06;5013514;28;20076;-72
2021/07/15 06:34:06;;;;;;;4.20;2.53;;;;;;;22.01;64.17;101221.59;5012562;28;20022;-73
2021/07/15 06:36:33;;;;;;;4.95;2.40;;;;;;;22.00;64.20;101227.03;5011988;28;20038;-72
2021/07/15 06:38:59;;;;;;;4.43;2.40;;;;;;;22.00;64.15;101227.91;5011517;28;20386;-73
2021/07/15 06:41:25;;;;;;;4.68;2.60;;;;;;;21.98;64.11;101227.19;5012587;28;20022;-67
2021/07/15 06:43:50;;;;;;;4.65;2.60;;;;;;;21.98;64.12;101235.13;5011954;28;20053;-72
2021/07/15 06:46:16;;;;;;;4.25;2.63;;;;;;;21.98;64.18;101239.63;5012117;28;20100;-72
2021/07/15 06:48:41;;;;;;;6.03;2.50;;;;;;;22.01;64.20;101244.66;5011852;28;20061;-68
2021/07/15 06:51:08;;;;;;;5.40;2.63;;;;;;;22.00;64.38;101235.84;5012732;28;20061;-72
2021/07/15 06:53:34;;;;;;;4.93;2.50;;;;;;;22.04;64.25;101244.38;5012449;28;20029;-71
2021/07/15 06:55:59;;;;;;;7.90;2.78;;;;;;;22.05;64.59;101241.56;5012497;28;20030;-74
2021/07/15 06:58:25;;;;;;;3.90;2.20;;;;;;;22.05;64.53;101238.09;5012924;28;20030;-69
2021/07/15 07:00:51;;;;;;;4.85;2.75;;;;;;;22.04;64.63;101242.53;5012986;28;20172;-73
2021/07/15 07:03:16;;;;;;;4.20;2.50;;;;;;;22.08;64.64;101240.47;5012452;28;20026;-70
2021/07/15 07:05:42;;;;;;;4.43;2.50;;;;;;;22.08;64.91;101243.94;5013583;28;20057;-72
2021/07/15 07:08:08;;;;;;;6.22;2.58;;;;;;;22.09;64.84;101247.44;5013337;28;20049;-72
2021/07/15 07:10:33;;;;;;;4.97;2.45;;;;;;;22.08;64.85;101253.72;5011983;28;20034;-70
2021/07/15 07:12:59;;;;;;;4.90;2.63;;;;;;;22.10;65.10;101259.72;5016344;28;20076;-69
2021/07/15 07:15:24;;;;;;;4.55;2.50;;;;;;;22.08;65.09;101267.84;5015676;28;20531;-69
2021/07/15 07:17:53;;;;;;;4.63;2.45;;;;;;;22.09;65.11;101266.00;5015394;28;20036;-73
2021/07/15 07:20:18;;;;;;;4.47;2.50;;;;;;;22.08;65.10;101270.47;5016274;28;20018;-70
2021/07/15 07:22:45;;;;;;;4.15;2.17;;;;;;;22.12;64.73;101278.16;5015995;28;20033;-71
2021/07/15 07:25:13;;;;;;;4.75;2.20;;;;;;;22.10;65.03;101279.13;5015509;28;20401;-72
2021/07/15 07:27:38;;;;;;;4.32;2.20;;;;;;;22.10;65.23;101281.78;5015775;28;20026;-71
2021/07/15 07:30:06;;;;;;;4.00;2.40;;;;;;;22.12;64.94;101294.09;5015944;28;20029;-70
2021/07/15 07:32:32;;;;;;;4.82;2.60;;;;;;;22.12;65.32;101291.44;5015524;28;20038;-70
2021/07/15 07:34:57;;;;;;;5.30;2.60;;;;;;;22.11;65.27;101287.94;5016311;28;20026;-69
2021/07/15 07:37:24;;;;;;;4.22;2.75;;;;;;;22.13;65.35;101290.44;5016020;28;20047;-72
2021/07/15 07:39:50;;;;;;;4.50;2.22;;;;;;;22.13;65.44;101285.13;5015636;28;20104;-69
2021/07/15 07:42:23;;;;;;;5.28;2.90;;;;;;;22.13;65.20;101288.66;5015887;28;20537;-70
2021/07/15 07:44:49;;;;;;;4.25;2.50;;;;;;;22.13;65.35;101288.66;5015911;28;20084;-71
2021/07/15 07:47:14;;;;;;;4.07;2.53;;;;;;;22.13;65.55;101290.44;5014365;28;20046;-71
2021/07/15 07:49:40;;;;;;;4.13;2.20;;;;;;;22.13;65.10;101291.31;5016308;28;20469;-70
2021/07/15 07:52:05;;;;;;;4.63;2.40;;;;;;;22.13;65.06;101290.44;5015539;28;20263;-72
2021/07/15 07:54:31;;;;;;;5.95;2.53;;;;;;;22.14;65.18;101294.78;5015927;28;20061;-69
2021/07/15 07:56:57;;;;;;;5.80;2.47;;;;;;;22.14;65.02;101302.75;5015939;28;20125;-69
2021/07/15 07:59:22;;;;;;;4.10;2.47;;;;;;;22.14;65.22;101303.56;5014822;28;20506;-69
2021/07/15 08:01:48;;;;;;;4.65;2.22;;;;;;;22.14;65.45;101297.44;5015621;28;20034;-69
2021/07/15 08:04:13;;;;;;;4.50;2.40;;;;;;;22.13;65.28;101295.75;5016398;28;20085;-73
2021/07/15 08:06:41;;;;;;;4.85;2.83;;;;;;;22.14;65.54;101313.38;5019411;28;20306;-73
2021/07/15 08:09:08;;;;;;;3.70;2.40;;;;;;;22.17;65.38;101307.78;5019408;28;20033;-70
2021/07/15 08:11:38;;;;;;;6.40;2.45;;;;;;;22.16;65.21;101298.13;5016716;28;20026;-70
2021/07/15 08:14:03;;;;;;;4.38;2.38;;;;;;;22.17;65.34;101305.94;5016968;28;20029;-74
2021/07/15 08:16:38;;;;;;;6.07;2.45;;;;;;;22.18;65.25;101314.78;5018404;28;20025;-72
2021/07/15 08:19:07;;;;;;;4.95;2.17;;;;;;;22.16;65.26;101314.06;5018529;28;20018;-72
2021/07/15 08:21:32;;;;;;;3.92;2.30;;;;;;;22.16;64.94;101306.09;5014875;28;20048;-72
2021/07/15 08:23:58;;;;;;;5.57;3.00;;;;;;;22.13;65.21;101316.97;5014206;28;20038;-69
2021/07/15 08:26:24;;;;;;;5.13;2.58;;;;;;;22.15;65.06;101325.66;5015570;28;20363;-71
2021/07/15 08:28:49;;;;;;;4.20;2.35;;;;;;;22.16;65.17;101322.00;5016280;28;20018;-72
2021/07/15 08:31:14;;;;;;;4.60;2.30;;;;;;;22.17;65.17;101329.00;5016946;28;20030;-74
2021/07/15 08:33:40;;;;;;;6.53;2.40;;;;;;;22.16;64.95;101333.50;5017408;28;20109;-72
2021/07/15 08:36:05;;;;;;;4.45;2.03;;;;;;;22.18;65.04;101338.66;5017779;28;20030;-73
2021/07/15 08:38:30;;;;;;;5.10;2.50;;;;;;;22.19;64.73;101337.66;5018399;28;20025;-74
2021/07/15 08:40:56;;;;;;;4.47;2.00;;;;;;;22.20;64.76;101339.34;5020025;28;20041;-74
2021/07/15 08:43:25;;;;;;;5.38;2.30;;;;;;;22.17;64.81;101334.31;5018564;28;20034;-70
2021/07/15 08:45:51;;;;;;;5.65;2.22;;;;;;;22.20;64.79;101345.50;5018096;28;20105;-70
2021/07/15 08:48:18;;;;;;;7.38;2.90;;;;;;;22.20;64.80;101350.81;5018138;28;20457;-71
2021/07/15 08:50:44;;;;;;;4.60;2.28;;;;;;;22.18;64.90;101344.81;5020467;28;20045;-73
2021/07/15 08:53:11;;;;;;;4.22;2.53;;;;;;;22.21;65.12;101355.16;5025844;28;20378;-78
2021/07/15 08:58:17;;;;;;;3.45;1.83;;;;;;;22.23;64.88;101360.31;5024161;28;20033;-77
2021/07/15 09:00:44;;;;;;;3.08;1.70;;;;;;;22.23;64.96;101355.84;5022890;28;20045;-78
2021/07/15 09:03:10;;;;;;;3.70;2.00;;;;;;;22.24;64.69;101352.22;5020698;28;20463;-76
2021/07/15 09:05:36;;;;;;;3.90;2.10;;;;;;;22.23;64.66;101347.88;5021931;28;20030;-78
2021/07/15 09:08:02;;;;;;;3.92;2.10;;;;;;;22.25;64.92;101353.88;5019238;28;20022;-76
2021/07/15 09:10:28;;;;;;;4.50;2.20;;;;;;;22.24;64.66;101357.53;5014584;28;20029;-76
2021/07/15 09:12:53;;;;;;;4.32;1.90;;;;;;;22.27;65.02;101367.00;5015164;28;20028;-74
2021/07/15 09:15:25;;;;;;;3.90;1.90;;;;;;;22.26;65.22;101374.16;5014178;28;20109;-69
2021/07/15 09:17:51;;;;;;;4.32;2.17;;;;;;;22.26;64.64;101373.31;5013743;28;20029;-74
2021/07/15 09:20:22;;;;;;;4.05;1.98;;;;;;;22.26;65.05;101383.94;5014550;28;20067;-75
2021/07/15 09:23:04;;;;;;;3.95;2.00;;;;;;;22.24;64.71;101373.44;5014253;28;20047;-72
2021/07/15 09:25:49;;;;;;;4.43;2.00;;;;;;;22.25;64.88;101377.75;5012870;28;20026;-72
2021/07/15 09:28:19;;;;;;;4.80;2.17;;;;;;;22.25;65.02;101387.56;5013537;28;20069;-69
2021/07/15 09:30:45;;;;;;;3.58;1.80;;;;;;;22.24;64.88;101386.72;5013281;28;20050;-72
2021/07/15 09:33:12;;;;;;;5.07;2.22;;;;;;;22.26;64.63;101389.25;5013929;28;20425;-75
2021/07/15 09:35:43;;;;;;;4.97;2.05;;;;;;;22.27;64.74;101391.75;5013957;28;20247;-73
2021/07/15 09:38:12;;;;;;;3.38;2.03;;;;;;;22.28;64.88;101392.59;5013717;28;20032;-74
2021/07/15 09:40:57;;;;;;;4.70;2.15;;;;;;;22.29;64.74;101391.63;5015200;28;20404;-72
2021/07/15 09:43:35;;;;;;;5.00;2.25;;;;;;;22.31;64.76;101395.00;5014198;28;20029;-72
2021/07/15 09:46:36;;;;;;;7.95;2.38;;;;;;;22.31;64.69;101397.66;5013384;28;20065;-77
2021/07/15 09:49:04;;;;;;;4.32;2.15;;;;;;;22.33;64.83;101397.50;5014849;28;20033;-77
2021/07/15 09:51:38;;;;;;;4.72;2.30;;;;;;;22.33;64.89;101393.03;5015473;28;20046;-73
2021/07/15 09:54:06;;;;;;;4.28;2.38;;;;;;;22.32;64.64;101399.34;5013492;28;20111;-76
2021/07/15 09:56:43;;;;;;;4.15;2.15;;;;;;;22.33;64.91;101400.16;5014907;28;20022;-78
2021/07/15 09:59:14;;;;;;;5.40;2.30;;;;;;;22.32;64.77;101399.34;5017840;28;20045;-78
2021/07/15 10:01:58;;;;;;;4.90;2.60;;;;;;;22.34;64.67;101392.06;5014604;28;20084;-74
2021/07/15 10:04:26;;;;;;;4.32;2.28;;;;;;;22.36;64.74;101399.91;5013461;28;20026;-75
2021/07/15 10:06:54;;;;;;;4.78;2.20;;;;;;;22.33;64.78;101398.34;5014684;28;20037;-74
2021/07/15 10:09:31;;;;;;;4.57;2.40;;;;;;;22.36;64.83;101397.25;5016970;28;20077;-73
2021/07/15 10:12:00;;;;;;;3.83;2.10;;;;;;;22.36;64.75;101403.38;5026387;28;20034;-74
2021/07/15 10:14:33;;;;;;;4.85;2.20;;;;;;;22.37;64.47;101404.25;5026271;28;20030;-73
2021/07/15 10:16:58;;;;;;;4.03;2.03;;;;;;;22.33;64.97;101401.00;5023401;28;20033;-75
2021/07/15 10:19:25;;;;;;;3.67;2.10;;;;;;;22.32;64.51;101396.69;5023084;28;20030;-74
2021/07/15 10:21:59;;;;;;;8.18;2.45;;;;;;;22.35;64.56;101409.69;5019059;28;20022;-75
2021/07/15 10:24:25;;;;;;;;;;;;;;;22.35;64.69;101404.38;5015411;28;20105;-73
2021/07/15 10:26:53;;;;;;;5.80;2.22;;;;;;;22.37;64.53;101409.56;5012772;28;19917;-72
2021/07/15 10:29:19;;;;;;;3.75;2.20;;;;;;;22.36;64.45;101414.00;5013017;28;20053;-67
2021/07/15 10:31:46;;;;;;;5.82;2.30;;;;;;;22.36;64.47;101415.81;5012572;28;20088;-69
2021/07/15 10:34:12;;;;;;;6.93;2.40;;;;;;;22.36;64.26;101411.34;5012166;28;20026;-68
2021/07/15 10:36:38;;;;;;;5.97;2.60;;;;;;;22.36;64.40;101418.47;5012369;28;20033;-69
2021/07/15 10:39:07;;;;;;;4.30;2.53;;;;;;;22.36;64.69;101426.44;5012375;28;20453;-68
2021/07/15 10:41:37;;;;;;;4.70;2.33;;;;;;;22.35;64.62;101412.34;5011545;28;20147;-68
2021/07/15 10:44:04;;;;;;;4.05;2.20;;;;;;;22.36;64.74;101424.63;5012303;28;20025;-70
2021/07/15 10:46:30;;;;;;;5.13;2.28;;;;;;;22.36;64.45;101432.59;5014146;28;20084;-72
2021/07/15 10:48:57;;;;;;;4.05;2.05;;;;;;;22.38;64.85;101429.78;5017198;28;20030;-72
2021/07/15 10:51:28;;;;;;;4.55;2.30;;;;;;;22.40;64.92;101438.47;5016786;28;20030;-68
2021/07/15 10:53:54;;;;;;;3.97;2.20;;;;;;;22.39;64.71;101436.78;5016896;28;20064;-70
2021/07/15 10:56:20;;;;;;;4.82;2.25;;;;;;;22.40;64.67;101433.16;5019317;28;20026;-72
2021/07/15 10:58:51;;;;;;;5.90;2.67;;;;;;;22.41;64.77;101434.81;5018870;28;20053;-76
2021/07/15 11:01:41;;;;;;;6.95;2.30;;;;;;;22.42;64.51;101433.88;5019539;28;20100;-73
2021/07/15 11:04:15;;;;;;;4.72;2.28;;;;;;;22.40;64.73;101439.31;5016747;28;20438;-68
2021/07/15 11:06:44;;;;;;;5.43;3.08;;;;;;;22.38;64.70;101440.41;5016781;28;20466;-68
2021/07/15 11:09:11;;;;;;;4.65;2.47;;;;;;;22.40;64.76;101441.97;5017463;28;20156;-71
2021/07/15 11:11:55;;;;;;;3.70;2.10;;;;;;;22.41;64.64;101442.78;5021088;28;20030;-70
2021/07/15 11:14:37;;;;;;;3.85;2.17;;;;;;;22.41;64.50;101429.53;5017406;28;20540;-72
2021/07/15 11:17:25;;;;;;;4.03;2.20;;;;;;;22.43;64.43;101454.13;5016433;28;20060;-71
2021/07/15 11:20:09;;;;;;;6.47;2.22;;;;;;;22.42;64.87;101461.25;5017347;28;20030;-69
2021/07/15 11:22:37;;;;;;;5.78;2.47;;;;;;;22.42;65.66;101461.25;5018186;28;20389;-73
2021/07/15 11:25:16;;;;;;;9.65;3.53;;;;;;;22.44;66.44;101461.94;5018871;28;20033;-72
2021/07/15 11:27:53;;;;;;;8.35;2.90;;;;;;;22.46;66.50;101467.97;5019612;28;20052;-73
2021/07/15 11:30:27;;;;;;;7.00;3.13;;;;;;;22.47;66.74;101463.50;5021278;28;20101;-70
2021/07/15 11:32:53;;;;;;;;;;;;;;;22.45;66.97;101462.81;5021419;28;20448;-71
2021/07/15 11:35:27;;;;;;;6.80;3.00;;;;;;;22.46;66.85;101469.78;5020010;28;19920;-73
2021/07/15 11:38:08;;;;;;;5.78;2.65;;;;;;;22.45;66.62;101474.25;5018816;28;20022;-72